KCKN/CKN METAR and TAF weather

Enter ICAO airport designator
Station Type Date Time Source
KCKN METAR 2019/10/21 02:16 UTC NOAA

KCKN 210216Z AUTO 06003KT 10SM -RA SCT043 BKN065 OVC070 10/06 A2982 RMK AO2


Station Type Date Time Source
KCKN Decoded METAR 2019/10/21 02:16 UTC NOAA

Crookston Municipal Field, MN, United States (KCKN) 47-51N 096-37W
Oct 20, 2019 - 10:16 PM EDT / 2019.10.21 0216 UTC
Wind: from the ENE (060 degrees) at 3 MPH (3 KT):0
Visibility: 10 mile(s):0
Sky conditions: overcast
Weather: light rain
Temperature: 50 F (10 C)
Dew Point: 42 F (6 C)
Relative Humidity: 76%
Pressure (altimeter): 29.82 in. Hg (1009 hPa)
ob: KCKN 210216Z AUTO 06003KT 10SM -RA SCT043 BKN065 OVC070 10/06 A2982 RMK AO2
cycle: 2

Station Type Date Time Source
KCKN TAF UTC NOAA

Error!

Example: see airport list